Piccolo — ZJL8278 — position and weather

sailwx.info

Track history (hours):
 
Tides and Currents Weather Stations Pressure Air Temp Water Temp Dewpoint Dewpoint Depression Visibility Wind Speed Wind Dir Waves Ship Positions

Piccolo

Last reported at 2017-Sep-06 06:59 UTC. Time now 2017-Nov-18 02:49 UTC.
Position N 25°30' W 080°03'.
Warning: this ship's position is months out of date.

Length 34 m; draft 3 m.

Type: Pleasure craft. MMSI: 378111636.

Date/timePositionNaut miles runAvg speedWind from/ knotsBaromVisibWave heightAir tempDewpointWater temp
2017-Sep-06 06:59N 25°30' W 080°03'4 7.9
2017-Sep-06 06:30N 25°33' W 080°03'4 7.8
2017-Sep-06 06:00N 25°37' W 080°03'4 8.0
2017-Sep-06 05:30N 25°41' W 080°03'4 8.3
2017-Sep-06 05:01N 25°45' W 080°03'4 8.4
2017-Sep-06 04:30N 25°49' W 080°03'4 8.5
2017-Sep-06 04:00N 25°54' W 080°02'4 8.9
2017-Sep-06 03:31N 25°58' W 080°02'5 9.8
2017-Sep-06 03:00N 26°03' W 080°04'4 8.5
2017-Sep-06 02:31N 26°06' W 080°07'1 2.2
2017-Sep-06 01:58N 26°07' W 080°06'0 0.0
2017-Sep-06 01:28N 26°07' W 080°06'0 0.0
2017-Sep-06 00:58N 26°07' W 080°06'0 0.0
2017-Sep-06 00:28N 26°07' W 080°06'0 0.0
2017-Sep-05 23:58N 26°07' W 080°06'0 0.0
2017-Sep-05 23:28N 26°07' W 080°06'0 0.0
2017-Sep-05 22:58N 26°07' W 080°06'0 0.0
2017-Sep-05 22:28N 26°07' W 080°06'0 0.0
2017-Sep-05 21:55N 26°07' W 080°06'0 0.0
2017-Sep-05 21:28N 26°07' W 080°06'0 0.0
2017-Sep-05 20:58N 26°07' W 080°06'0 0.0
2017-Sep-05 20:28N 26°07' W 080°06'0 0.0
2017-Sep-05 19:55N 26°07' W 080°06'0 0.0
2017-Sep-05 19:28N 26°07' W 080°06'0 0.0
2017-Sep-05 18:58N 26°07' W 080°06'0 0.0
2017-Sep-05 18:28N 26°07' W 080°06'0 0.0
2017-Sep-05 17:55N 26°07' W 080°06'0 0.0
2017-Sep-05 17:28N 26°07' W 080°06'0 0.0
2017-Sep-05 16:58N 26°07' W 080°06'0 0.0
2017-Sep-05 16:28N 26°07' W 080°06'0 0.0
2017-Sep-05 15:58N 26°07' W 080°06'0 0.1
2017-Sep-05 15:30N 26°07' W 080°07'0 0.0
2017-Sep-05 14:33N 26°07' W 080°07'0 0.0
2017-Sep-05 14:27N 26°07' W 080°07'0 0.1
2017-Sep-05 13:55N 26°07' W 080°06'0 0.0
2017-Sep-05 13:22N 26°07' W 080°06'0 0.0
2017-Sep-05 12:40N 26°07' W 080°06'0 0.0
2017-Sep-05 12:28N 26°07' W 080°06'0 0.0
2017-Sep-05 11:58N 26°07' W 080°06'0 0.0
2017-Sep-05 11:28N 26°07' W 080°06'0 0.0
2017-Sep-05 10:57N 26°07' W 080°06'0 0.0
2017-Sep-05 10:28N 26°07' W 080°06'0 0.0
2017-Sep-05 09:58N 26°07' W 080°06'0 0.0
2017-Sep-05 09:28N 26°07' W 080°06'0 0.0
2017-Sep-05 08:58N 26°07' W 080°06'0 0.0
2017-Sep-05 08:28N 26°07' W 080°06'0 0.0
2017-Sep-05 07:57N 26°07' W 080°06'0 0.0
2017-Sep-05 07:31N 26°07' W 080°06'0 0.0
2017-Sep-05 06:58N 26°07' W 080°06'0 0.0
2017-Sep-05 06:28N 26°07' W 080°06'0 0.0
2017-Sep-05 05:58N 26°07' W 080°06'0 0.0
2017-Sep-05 05:28N 26°07' W 080°06'0 0.0
2017-Sep-05 05:01N 26°07' W 080°06'0 0.0
2017-Sep-05 04:28N 26°07' W 080°06'0 0.0
2017-Sep-05 03:58N 26°07' W 080°06'0 0.0
2017-Sep-05 03:28N 26°07' W 080°06'0 0.0
2017-Sep-05 03:01N 26°07' W 080°06'0 0.0
2017-Sep-05 02:25N 26°07' W 080°06'0 0.0
2017-Sep-05 01:45N 26°07' W 080°06'0 0.0
2017-Sep-05 01:22N 26°07' W 080°06'0 0.0
2017-Sep-05 00:55N 26°07' W 080°06'0 0.0
2017-Sep-05 00:22N 26°07' W 080°06'0 0.0
2017-Sep-04 23:52N 26°07' W 080°06'0 0.0
2017-Sep-04 23:22N 26°07' W 080°06'0 0.0
2017-Sep-04 22:31N 26°07' W 080°06'0 0.0
2017-Sep-04 21:52N 26°07' W 080°06'0 0.0
2017-Sep-04 21:21N 26°07' W 080°06'0 0.0
2017-Sep-04 20:55N 26°07' W 080°06'0 0.0
2017-Sep-04 20:28N 26°07' W 080°06'0 0.0
2017-Sep-04 19:55N 26°07' W 080°06'0 0.0
2017-Sep-04 19:28N 26°07' W 080°06'0 0.0
2017-Sep-04 19:01N 26°07' W 080°06'0 0.0
2017-Sep-04 18:24N 26°07' W 080°06'0 0.0
2017-Sep-04 17:58N 26°07' W 080°06'0 0.0
2017-Sep-04 17:28N 26°07' W 080°06'0 0.0
2017-Sep-04 17:01N 26°07' W 080°06'0 0.0
2017-Sep-04 16:28N 26°07' W 080°06'0 0.0
2017-Sep-04 15:27N 26°07' W 080°06'0 0.0
2017-Sep-04 14:46N 26°07' W 080°06'0 0.0
2017-Sep-04 14:16N 26°07' W 080°06'0 0.0
2017-Sep-04 13:48N 26°07' W 080°06'0 0.0
2017-Sep-04 13:03N 26°07' W 080°06'0 0.0
2017-Sep-04 12:48N 26°07' W 080°06'0 0.0
2017-Sep-04 12:25N 26°07' W 080°06'0 0.0
2017-Sep-04 11:33N 26°07' W 080°06'0 0.0
2017-Sep-04 11:21N 26°07' W 080°06'0 0.0
2017-Sep-04 10:10N 26°07' W 080°06'0 0.0
2017-Sep-04 09:43N 26°07' W 080°06'0 0.0
2017-Sep-04 09:31N 26°07' W 080°06'0 0.0
2017-Sep-04 09:00N 26°07' W 080°06'0 0.0
2017-Sep-04 08:31N 26°07' W 080°06'0 0.0
2017-Sep-04 08:00N 26°07' W 080°06'0 0.0
2017-Sep-04 07:30N 26°07' W 080°06'0 0.0
2017-Sep-04 07:00N 26°07' W 080°06'0 0.0
2017-Sep-04 06:30N 26°07' W 080°06'0 0.0
2017-Sep-04 06:00N 26°07' W 080°06'0 0.0
2017-Sep-04 05:30N 26°07' W 080°06'0 0.0
2017-Sep-04 04:57N 26°07' W 080°06'0 0.0
2017-Sep-04 04:31N 26°07' W 080°06'0 0.0
2017-Sep-04 04:00N 26°07' W 080°06'0 0.0
2017-Sep-04 03:30N 26°07' W 080°06'0 0.0
2017-Sep-04 03:01N 26°07' W 080°06'0 0.0
2017-Sep-04 02:28N 26°07' W 080°06'0 0.0
2017-Sep-04 02:00N 26°07' W 080°06'0 0.0
2017-Sep-04 00:54N 26°07' W 080°06'0 0.0
2017-Sep-04 00:28N 26°07' W 080°06'0 0.0
2017-Sep-03 23:52N 26°07' W 080°06'0 0.0
2017-Sep-03 22:03N 26°07' W 080°06'0 0.0
2017-Sep-03 21:54N 26°07' W 080°06'0 0.0
2017-Sep-03 21:15N 26°07' W 080°06'0 0.0
2017-Sep-03 20:54N 26°07' W 080°06'0 0.0
2017-Sep-03 20:30N 26°07' W 080°06'0 0.0
2017-Sep-03 20:00N 26°07' W 080°06'0 0.0
2017-Sep-03 19:30N 26°07' W 080°06'0 0.0
2017-Sep-03 19:00N 26°07' W 080°06'0 0.0
2017-Sep-03 18:30N 26°07' W 080°06'0 0.0
2017-Sep-03 17:57N 26°07' W 080°06'0 0.0
2017-Sep-03 17:30N 26°07' W 080°06'0 0.0
2017-Sep-03 17:00N 26°07' W 080°06'0 0.0
2017-Sep-03 16:30N 26°07' W 080°06'0 0.0
2017-Sep-03 16:00N 26°07' W 080°06'0 0.0
2017-Sep-03 15:30N 26°07' W 080°06'0 0.0
2017-Sep-03 15:00N 26°07' W 080°06'0 0.0
2017-Sep-03 13:51N 26°07' W 080°06'0 0.0
2017-Sep-03 13:27N 26°07' W 080°06'0 0.0
2017-Sep-03 12:27N 26°07' W 080°06'0 0.0
2017-Sep-03 11:57N 26°07' W 080°06'0 0.0
2017-Sep-03 10:45N 26°07' W 080°06'0 0.0
2017-Sep-03 09:03N 26°07' W 080°06'0 0.0
2017-Sep-03 08:57N 26°07' W 080°06'0 0.0
2017-Sep-03 08:21N 26°07' W 080°06'0 0.0
2017-Sep-03 08:00N 26°07' W 080°06'0 0.0
2017-Sep-03 07:30N 26°07' W 080°06'0 0.0
2017-Sep-03 07:00N 26°07' W 080°06'0 0.0
2017-Sep-03 06:30N 26°07' W 080°06'0 0.0
2017-Sep-03 05:57N 26°07' W 080°06'0 0.0
2017-Sep-03 05:30N 26°07' W 080°06'0 0.0
2017-Sep-03 05:00N 26°07' W 080°06'0 0.0
2017-Sep-03 04:30N 26°07' W 080°06'0 0.0
2017-Sep-03 04:00N 26°07' W 080°06'0 0.0
2017-Sep-03 03:30N 26°07' W 080°06'0 0.0
2017-Sep-03 03:00N 26°07' W 080°06'0 0.0
2017-Sep-03 02:30N 26°07' W 080°06'0 0.0
2017-Sep-03 01:51N 26°07' W 080°06'0 0.0
2017-Sep-03 01:30N 26°07' W 080°06'0 0.0
2017-Sep-03 00:39N 26°07' W 080°06'0 0.0
2017-Sep-03 00:30N 26°07' W 080°06'0 0.0
2017-Sep-02 23:27N 26°07' W 080°06'0 0.0
2017-Sep-02 21:57N 26°07' W 080°06'0 0.0
2017-Sep-02 19:45N 26°07' W 080°06'0 0.0
2017-Sep-02 19:27N 26°07' W 080°06'0 0.0
2017-Sep-02 18:57N 26°07' W 080°06'0 0.0
2017-Sep-02 18:30N 26°07' W 080°06'0 0.0
2017-Sep-02 18:00N 26°07' W 080°06'0 0.0
2017-Sep-02 17:27N 26°07' W 080°06'0 0.0
2017-Sep-02 17:00N 26°07' W 080°06'0 0.0
2017-Sep-02 16:30N 26°07' W 080°06'0 0.0
2017-Sep-02 15:57N 26°07' W 080°06'0 0.0
2017-Sep-02 15:30N 26°07' W 080°06'0 0.0
2017-Sep-02 15:00N 26°07' W 080°06'0 0.0
2017-Sep-02 14:30N 26°07' W 080°06'0 0.0
2017-Sep-02 14:00N 26°07' W 080°06'0 0.0
2017-Sep-02 13:27N 26°07' W 080°06'0 0.0
2017-Sep-02 12:51N 26°07' W 080°06'0 0.0
2017-Sep-02 12:24N 26°07' W 080°06'0 0.0
2017-Sep-02 11:57N 26°07' W 080°06'0 0.0
2017-Sep-02 11:30N 26°07' W 080°06'0 0.0
2017-Sep-02 10:54N 26°07' W 080°06'0 0.0
2017-Sep-02 10:24N 26°07' W 080°06'0 0.0
2017-Sep-02 09:51N 26°07' W 080°06'0 0.0
2017-Sep-02 09:30N 26°07' W 080°06'0 0.0
2017-Sep-02 09:00N 26°07' W 080°06'0 0.0
2017-Sep-02 08:30N 26°07' W 080°06'0 0.0
2017-Sep-02 08:00N 26°07' W 080°06'0 0.0
2017-Sep-02 07:30N 26°07' W 080°06'0 0.0
2017-Sep-02 06:57N 26°07' W 080°06'0 0.0
2017-Sep-02 06:30N 26°07' W 080°06'0 0.0
2017-Sep-02 06:00N 26°07' W 080°06'0 0.0
2017-Sep-02 05:30N 26°07' W 080°06'0 0.0
2017-Sep-02 05:00N 26°07' W 080°06'0 0.0
2017-Sep-02 04:27N 26°07' W 080°06'0 0.0
2017-Sep-02 04:00N 26°07' W 080°06'0 0.0
2017-Sep-02 03:30N 26°07' W 080°06'0 0.0
2017-Sep-02 02:57N 26°07' W 080°06'0 0.0
2017-Sep-02 02:27N 26°07' W 080°06'0 0.0
2017-Sep-02 02:00N 26°07' W 080°06'0 0.0
2017-Sep-02 01:30N 26°07' W 080°06'0 0.0
2017-Sep-02 01:00N 26°07' W 080°06'0 0.0
2017-Sep-02 00:24N 26°07' W 080°06'0 0.0
2017-Sep-02 00:00N 26°07' W 080°06'0 0.0
2017-Sep-01 23:21N 26°07' W 080°06'0 0.0
2017-Sep-01 22:51N 26°07' W 080°06'0 0.0
2017-Sep-01 22:24N 26°07' W 080°06'0 0.0
2017-Sep-01 21:39N 26°07' W 080°06'0 0.0
2017-Sep-01 21:12N 26°07' W 080°06'0 0.0
2017-Sep-01 20:51N 26°07' W 080°06'0 0.0
2017-Sep-01 20:21N 26°07' W 080°06'0 0.0
2017-Sep-01 19:51N 26°07' W 080°06'0 0.0
2017-Sep-01 19:21N 26°07' W 080°06'0 0.0
2017-Sep-01 19:00N 26°07' W 080°06'0 0.0
2017-Sep-01 18:27N 26°07' W 080°06'0 0.0
2017-Sep-01 18:00N 26°07' W 080°06'0 0.0
2017-Sep-01 17:30N 26°07' W 080°06'0 0.0
2017-Sep-01 16:57N 26°07' W 080°06'0 0.0
2017-Sep-01 16:30N 26°07' W 080°06'0 0.0
2017-Sep-01 16:00N 26°07' W 080°06'0 0.0
2017-Sep-01 15:30N 26°07' W 080°06'0 0.0
2017-Sep-01 15:00N 26°07' W 080°06'0 0.0
2017-Sep-01 14:21N 26°07' W 080°06'0 0.0
2017-Sep-01 14:00N 26°07' W 080°06'0 0.0
2017-Sep-01 13:30N 26°07' W 080°06'0 0.0
2017-Sep-01 13:00N 26°07' W 080°06'0 0.0
2017-Sep-01 12:30N 26°07' W 080°06'0 0.0
2017-Sep-01 12:00N 26°07' W 080°06'0 0.0
2017-Sep-01 11:30N 26°07' W 080°06'0 0.0
2017-Sep-01 10:57N 26°07' W 080°06'0 0.0
2017-Sep-01 10:30N 26°07' W 080°06'0 0.0
2017-Sep-01 10:00N 26°07' W 080°06'0 0.0
2017-Sep-01 09:30N 26°07' W 080°06'0 0.0
2017-Sep-01 08:57N 26°07' W 080°06'0 0.0
2017-Sep-01 08:21N 26°07' W 080°06'0 0.0
2017-Sep-01 07:57N 26°07' W 080°06'0 0.0
2017-Sep-01 07:30N 26°07' W 080°06'0 0.0
2017-Sep-01 06:54N 26°07' W 080°06'0 0.0
2017-Sep-01 06:30N 26°07' W 080°06'0 0.0
2017-Sep-01 06:00N 26°07' W 080°06'0 0.0
2017-Sep-01 05:30N 26°07' W 080°06'0 0.0
2017-Sep-01 05:00N 26°07' W 080°06'0 0.0
2017-Sep-01 04:30N 26°07' W 080°06'0 0.0
2017-Sep-01 04:00N 26°07' W 080°06'0 0.0
2017-Sep-01 03:27N 26°07' W 080°06'0 0.0
2017-Sep-01 03:00N 26°07' W 080°06'0 0.0
2017-Sep-01 02:30N 26°07' W 080°06'0 0.0
2017-Sep-01 02:00N 26°07' W 080°06'0 0.0
2017-Sep-01 01:30N 26°07' W 080°06'0 0.0
2017-Sep-01 00:54N 26°07' W 080°06'0 0.0
2017-Sep-01 00:30N 26°07' W 080°06'0 0.0
2017-Sep-01 00:00N 26°07' W 080°06'0 0.0
2017-Aug-31 23:30N 26°07' W 080°06'0 0.0
2017-Aug-31 23:00N 26°07' W 080°06'0 0.0
2017-Aug-31 22:27N 26°07' W 080°06'0 0.0
2017-Aug-31 21:45N 26°07' W 080°06'0 0.0
2017-Aug-31 20:45N 26°07' W 080°06'0 0.0
2017-Aug-31 20:15N 26°07' W 080°06'0 0.0
2017-Aug-31 19:45N 26°07' W 080°06'0 0.0
2017-Aug-31 19:30N 26°07' W 080°06'0 0.0
2017-Aug-31 18:51N 26°07' W 080°06'0 0.0
2017-Aug-31 18:21N 26°07' W 080°06'0 0.0
2017-Aug-31 17:51N 26°07' W 080°06'0 0.0
2017-Aug-31 17:21N 26°07' W 080°06'0 0.0
2017-Aug-31 16:39N 26°07' W 080°06'0 0.0
2017-Aug-31 16:30N 26°07' W 080°06'0 0.0
2017-Aug-31 15:51N 26°07' W 080°06'0 0.0
2017-Aug-31 15:21N 26°07' W 080°06'0 0.0
2017-Aug-31 14:54N 26°07' W 080°06'0 0.0
2017-Aug-31 14:21N 26°07' W 080°06'0 0.0
2017-Aug-31 14:00N 26°07' W 080°06'0 0.0
2017-Aug-31 13:30N 26°07' W 080°06'0 0.0
2017-Aug-31 12:57N 26°07' W 080°06'0 0.0
2017-Aug-31 12:27N 26°07' W 080°06'0 0.0
2017-Aug-31 11:51N 26°07' W 080°06'0 0.0
2017-Aug-31 11:27N 26°07' W 080°06'0 0.0
2017-Aug-31 11:00N 26°07' W 080°06'0 0.0
2017-Aug-31 10:24N 26°07' W 080°06'0 0.0
2017-Aug-31 09:54N 26°07' W 080°06'0 0.0
2017-Aug-31 09:09N 26°07' W 080°06'0 0.0
2017-Aug-31 08:57N 26°07' W 080°06'0 0.0
2017-Aug-31 08:27N 26°07' W 080°06'0 0.0
2017-Aug-31 07:54N 26°07' W 080°06'0 0.0
2017-Aug-31 07:30N 26°07' W 080°06'0 0.0
2017-Aug-31 07:00N 26°07' W 080°06'0 0.0
2017-Aug-31 06:30N 26°07' W 080°06'0 0.0
2017-Aug-31 06:00N 26°07' W 080°06'0 0.0
2017-Aug-31 05:30N 26°07' W 080°06'0 0.0
2017-Aug-31 05:00N 26°07' W 080°06'0 0.0
2017-Aug-31 04:30N 26°07' W 080°06'0 0.0
2017-Aug-31 03:57N 26°07' W 080°06'0 0.0
2017-Aug-31 03:30N 26°07' W 080°06'0 0.0
2017-Aug-31 03:00N 26°07' W 080°06'0 0.0
2017-Aug-31 02:30N 26°07' W 080°06'0 0.0
2017-Aug-31 02:00N 26°07' W 080°06'0 0.0
2017-Aug-31 01:30N 26°07' W 080°06'0 0.0
2017-Aug-31 00:57N 26°07' W 080°06'0 0.0
2017-Aug-31 00:30N 26°07' W 080°06'0 0.0
2017-Aug-31 00:00N 26°07' W 080°06'0 0.0
2017-Aug-30 23:24N 26°07' W 080°06'0 0.0
2017-Aug-30 23:00N 26°07' W 080°06'0 0.0
2017-Aug-30 22:27N 26°07' W 080°06'0 0.0
2017-Aug-30 21:57N 26°07' W 080°06'0 0.0
2017-Aug-30 21:24N 26°07' W 080°06'0 0.0
2017-Aug-30 20:12N 26°07' W 080°06'0 0.0
2017-Aug-30 19:57N 26°07' W 080°06'0 0.0
2017-Aug-30 19:27N 26°07' W 080°06'0 0.0
2017-Aug-30 18:57N 26°07' W 080°06'0 0.0
2017-Aug-30 18:27N 26°07' W 080°06'0 0.0
2017-Aug-30 17:15N 26°07' W 080°06'0 0.0
2017-Aug-30 16:45N 26°07' W 080°06'0 0.0
2017-Aug-30 16:27N 26°07' W 080°06'0 0.0
2017-Aug-30 15:57N 26°07' W 080°06'0 0.0
2017-Aug-30 15:21N 26°07' W 080°06'0 0.0
2017-Aug-30 14:45N 26°07' W 080°06'0 0.0
2017-Aug-30 14:30N 26°07' W 080°06'0 0.0
2017-Aug-30 14:00N 26°07' W 080°06'0 0.0
2017-Aug-30 13:30N 26°07' W 080°06'0 0.0
2017-Aug-30 13:00N 26°07' W 080°06'0 0.0
2017-Aug-30 12:30N 26°07' W 080°06'0 0.0
2017-Aug-30 12:00N 26°07' W 080°06'0 0.0
2017-Aug-30 11:30N 26°07' W 080°06'0 0.0
2017-Aug-30 11:00N 26°07' W 080°06'0 0.0
2017-Aug-30 10:27N 26°07' W 080°06'0 0.0
2017-Aug-30 09:51N 26°07' W 080°06'0 0.0
2017-Aug-30 09:27N 26°07' W 080°06'0 0.0
2017-Aug-30 08:51N 26°07' W 080°06'0 0.0
2017-Aug-30 08:27N 26°07' W 080°06'0 0.0
2017-Aug-30 07:57N 26°07' W 080°06'0 0.0
2017-Aug-30 07:27N 26°07' W 080°06'0 0.0
2017-Aug-30 06:57N 26°07' W 080°06'0 0.0
2017-Aug-30 06:27N 26°07' W 080°06'0 0.0
2017-Aug-30 05:57N 26°07' W 080°06'0 0.0
2017-Aug-30 05:30N 26°07' W 080°06'0 0.0
2017-Aug-30 05:00N 26°07' W 080°06'0 0.0
2017-Aug-30 04:30N 26°07' W 080°06'0 0.0
2017-Aug-30 04:00N 26°07' W 080°06'0 0.0
2017-Aug-30 03:27N 26°07' W 080°06'0 0.0
2017-Aug-30 03:00N 26°07' W 080°06'0 0.0
2017-Aug-30 02:30N 26°07' W 080°06'0 0.0
2017-Aug-30 01:57N 26°07' W 080°06'0 0.0
2017-Aug-30 01:30N 26°07' W 080°06'0 0.0
2017-Aug-30 01:00N 26°07' W 080°06'0 0.0
2017-Aug-30 00:30N 26°07' W 080°06'0 0.0
2017-Aug-29 23:57N 26°07' W 080°06'0 0.0
2017-Aug-29 23:30N 26°07' W 080°06'0 0.0
2017-Aug-29 23:00N 26°07' W 080°06'0 0.0
2017-Aug-29 22:30N 26°07' W 080°06'0 0.0
2017-Aug-29 21:39N 26°07' W 080°06'0 0.0
2017-Aug-29 21:21N 26°07' W 080°06'0 0.0
2017-Aug-29 20:57N 26°07' W 080°06'0 0.0
2017-Aug-29 20:21N 26°07' W 080°06'0 0.0
2017-Aug-29 19:48N 26°07' W 080°06'0 0.0
2017-Aug-29 19:09N 26°07' W 080°06'0 0.0
2017-Aug-29 18:51N 26°07' W 080°06'0 0.0
2017-Aug-29 18:21N 26°07' W 080°06'0 0.0
2017-Aug-29 17:51N 26°07' W 080°06'0 0.0
2017-Aug-29 17:27N 26°07' W 080°06'0 0.0
2017-Aug-29 16:57N 26°07' W 080°06'0 0.0
2017-Aug-29 16:21N 26°07' W 080°06'0 0.0
2017-Aug-29 15:51N 26°07' W 080°06'0 0.0
2017-Aug-29 15:30N 26°07' W 080°06'0 0.0
2017-Aug-29 14:57N 26°07' W 080°06'0 0.0
2017-Aug-29 14:27N 26°07' W 080°06'0 0.0
2017-Aug-29 14:00N 26°07' W 080°06'0 0.0
2017-Aug-29 13:27N 26°07' W 080°06'0 0.0
2017-Aug-29 13:00N 26°07' W 080°06'0 0.0
2017-Aug-29 12:30N 26°07' W 080°06'0 0.0
2017-Aug-29 12:00N 26°07' W 080°06'0 0.0
2017-Aug-29 11:15N 26°07' W 080°06'0 0.0
2017-Aug-29 11:00N 26°07' W 080°06'0 0.0
2017-Aug-29 10:30N 26°07' W 080°06'0 0.0
2017-Aug-29 10:00N 26°07' W 080°06'0 0.0
2017-Aug-29 09:30N 26°07' W 080°06'0 0.0
2017-Aug-29 09:00N 26°07' W 080°06'0 0.0
2017-Aug-29 08:18N 26°07' W 080°06'0 0.0
2017-Aug-29 08:00N 26°07' W 080°06'0 0.0
2017-Aug-29 07:30N 26°07' W 080°06'0 0.0
2017-Aug-29 06:57N 26°07' W 080°06'0 0.0
2017-Aug-29 06:30N 26°07' W 080°06'0 0.0
2017-Aug-29 05:57N 26°07' W 080°06'0 0.0
2017-Aug-29 05:24N 26°07' W 080°06'0 0.0
2017-Aug-29 04:51N 26°07' W 080°06'0 0.0
2017-Aug-29 04:30N 26°07' W 080°06'0 0.0
2017-Aug-29 03:51N 26°07' W 080°06'0 0.0
2017-Aug-29 03:27N 26°07' W 080°06'0 0.0
2017-Aug-29 02:51N 26°07' W 080°06'0 0.0
2017-Aug-29 02:27N 26°07' W 080°06'0 0.0
2017-Aug-29 02:00N 26°07' W 080°06'0 0.0
2017-Aug-29 01:27N 26°07' W 080°06'0 0.0
2017-Aug-29 01:00N 26°07' W 080°06'0 0.0
2017-Aug-29 00:30N 26°07' W 080°06'0 0.0
2017-Aug-28 23:57N 26°07' W 080°06'0 0.0
2017-Aug-28 23:30N 26°07' W 080°06'0 0.0
2017-Aug-28 22:57N 26°07' W 080°06'0 0.0
2017-Aug-28 22:30N 26°07' W 080°06'0 0.0
2017-Aug-28 21:45N 26°07' W 080°06'0 0.0
2017-Aug-28 21:27N 26°07' W 080°06'0 0.0
2017-Aug-28 17:45N 26°07' W 080°06'0 0.0
2017-Aug-28 17:21N 26°07' W 080°06'0 0.0
2017-Aug-28 16:51N 26°07' W 080°06'0 0.0
2017-Aug-28 16:15N 26°07' W 080°06'0 0.0
2017-Aug-28 15:45N 26°07' W 080°06'0 0.0
2017-Aug-28 15:21N 26°07' W 080°06'0 0.0
2017-Aug-28 14:45N 26°07' W 080°06'0 0.0
2017-Aug-28 14:21N 26°07' W 080°06'0 0.0
2017-Aug-28 13:57N 26°07' W 080°06'0 0.0
2017-Aug-28 13:30N 26°07' W 080°06'0 0.0
2017-Aug-28 12:51N 26°07' W 080°06'0 0.0
2017-Aug-28 12:21N 26°07' W 080°06'0 0.0
2017-Aug-28 11:51N 26°07' W 080°06'0 0.0
2017-Aug-28 11:24N 26°07' W 080°06'0 0.0
2017-Aug-28 10:51N 26°07' W 080°06'0 0.0
2017-Aug-28 10:21N 26°07' W 080°06'0 0.0
2017-Aug-28 10:00N 26°07' W 080°06'0 0.0
2017-Aug-28 09:27N 26°07' W 080°06'0 0.0
2017-Aug-28 08:57N 26°07' W 080°06'0 0.0
2017-Aug-28 08:30N 26°07' W 080°06'0 0.0
2017-Aug-28 08:00N 26°07' W 080°06'1 2.1
2017-Aug-28 07:30N 26°06' W 080°07'4 8.2
2017-Aug-28 07:00N 26°06' W 080°03'714.3
2017-Aug-28 06:30N 26°02' W 079°56'713.7
2017-Aug-28 06:00N 25°60' W 079°49'  
Track history (hours):
 
Tides and Currents Weather Stations Pressure Air Temp Water Temp Dewpoint Dewpoint Depression Visibility Wind Speed Wind Dir Waves Ship Positions

Piccolo

Last reported at 2017-Sep-06 06:59 UTC. Time now 2017-Nov-18 02:49 UTC.
Position N 25°30' W 080°03'.
Warning: this ship's position is months out of date.

Length 34 m; draft 3 m.

Type: Pleasure craft. MMSI: 378111636.

Date/timePositionNaut miles runAvg speedWind from/ knotsBaromVisibWave heightAir tempDewpointWater temp
2017-Sep-06 06:59N 25°30' W 080°03'4 7.9
2017-Sep-06 06:30N 25°33' W 080°03'4 7.8
2017-Sep-06 06:00N 25°37' W 080°03'4 8.0
2017-Sep-06 05:30N 25°41' W 080°03'4 8.3
2017-Sep-06 05:01N 25°45' W 080°03'4 8.4
2017-Sep-06 04:30N 25°49' W 080°03'4 8.5
2017-Sep-06 04:00N 25°54' W 080°02'4 8.9
2017-Sep-06 03:31N 25°58' W 080°02'5 9.8
2017-Sep-06 03:00N 26°03' W 080°04'4 8.5
2017-Sep-06 02:31N 26°06' W 080°07'1 2.2
2017-Sep-06 01:58N 26°07' W 080°06'0 0.0
2017-Sep-06 01:28N 26°07' W 080°06'0 0.0
2017-Sep-06 00:58N 26°07' W 080°06'0 0.0
2017-Sep-06 00:28N 26°07' W 080°06'0 0.0
2017-Sep-05 23:58N 26°07' W 080°06'0 0.0
2017-Sep-05 23:28N 26°07' W 080°06'0 0.0
2017-Sep-05 22:58N 26°07' W 080°06'0 0.0
2017-Sep-05 22:28N 26°07' W 080°06'0 0.0
2017-Sep-05 21:55N 26°07' W 080°06'0 0.0
2017-Sep-05 21:28N 26°07' W 080°06'0 0.0
2017-Sep-05 20:58N 26°07' W 080°06'0 0.0
2017-Sep-05 20:28N 26°07' W 080°06'0 0.0
2017-Sep-05 19:55N 26°07' W 080°06'0 0.0
2017-Sep-05 19:28N 26°07' W 080°06'0 0.0
2017-Sep-05 18:58N 26°07' W 080°06'0 0.0
2017-Sep-05 18:28N 26°07' W 080°06'0 0.0
2017-Sep-05 17:55N 26°07' W 080°06'0 0.0
2017-Sep-05 17:28N 26°07' W 080°06'0 0.0
2017-Sep-05 16:58N 26°07' W 080°06'0 0.0
2017-Sep-05 16:28N 26°07' W 080°06'0 0.0
2017-Sep-05 15:58N 26°07' W 080°06'0 0.1
2017-Sep-05 15:30N 26°07' W 080°07'0 0.0
2017-Sep-05 14:33N 26°07' W 080°07'0 0.0
2017-Sep-05 14:27N 26°07' W 080°07'0 0.1
2017-Sep-05 13:55N 26°07' W 080°06'0 0.0
2017-Sep-05 13:22N 26°07' W 080°06'0 0.0
2017-Sep-05 12:40N 26°07' W 080°06'0 0.0
2017-Sep-05 12:28N 26°07' W 080°06'0 0.0
2017-Sep-05 11:58N 26°07' W 080°06'0 0.0
2017-Sep-05 11:28N 26°07' W 080°06'0 0.0
2017-Sep-05 10:57N 26°07' W 080°06'0 0.0
2017-Sep-05 10:28N 26°07' W 080°06'0 0.0
2017-Sep-05 09:58N 26°07' W 080°06'0 0.0
2017-Sep-05 09:28N 26°07' W 080°06'0 0.0
2017-Sep-05 08:58N 26°07' W 080°06'0 0.0
2017-Sep-05 08:28N 26°07' W 080°06'0 0.0
2017-Sep-05 07:57N 26°07' W 080°06'0 0.0
2017-Sep-05 07:31N 26°07' W 080°06'0 0.0
2017-Sep-05 06:58N 26°07' W 080°06'0 0.0
2017-Sep-05 06:28N 26°07' W 080°06'0 0.0
2017-Sep-05 05:58N 26°07' W 080°06'0 0.0
2017-Sep-05 05:28N 26°07' W 080°06'0 0.0
2017-Sep-05 05:01N 26°07' W 080°06'0 0.0
2017-Sep-05 04:28N 26°07' W 080°06'0 0.0
2017-Sep-05 03:58N 26°07' W 080°06'0 0.0
2017-Sep-05 03:28N 26°07' W 080°06'0 0.0
2017-Sep-05 03:01N 26°07' W 080°06'0 0.0
2017-Sep-05 02:25N 26°07' W 080°06'0 0.0
2017-Sep-05 01:45N 26°07' W 080°06'0 0.0
2017-Sep-05 01:22N 26°07' W 080°06'0 0.0
2017-Sep-05 00:55N 26°07' W 080°06'0 0.0
2017-Sep-05 00:22N 26°07' W 080°06'0 0.0
2017-Sep-04 23:52N 26°07' W 080°06'0 0.0
2017-Sep-04 23:22N 26°07' W 080°06'0 0.0
2017-Sep-04 22:31N 26°07' W 080°06'0 0.0
2017-Sep-04 21:52N 26°07' W 080°06'0 0.0
2017-Sep-04 21:21N 26°07' W 080°06'0 0.0
2017-Sep-04 20:55N 26°07' W 080°06'0 0.0
2017-Sep-04 20:28N 26°07' W 080°06'0 0.0
2017-Sep-04 19:55N 26°07' W 080°06'0 0.0
2017-Sep-04 19:28N 26°07' W 080°06'0 0.0
2017-Sep-04 19:01N 26°07' W 080°06'0 0.0
2017-Sep-04 18:24N 26°07' W 080°06'0 0.0
2017-Sep-04 17:58N 26°07' W 080°06'0 0.0
2017-Sep-04 17:28N 26°07' W 080°06'0 0.0
2017-Sep-04 17:01N 26°07' W 080°06'0 0.0
2017-Sep-04 16:28N 26°07' W 080°06'0 0.0
2017-Sep-04 15:27N 26°07' W 080°06'0 0.0
2017-Sep-04 14:46N 26°07' W 080°06'0 0.0
2017-Sep-04 14:16N 26°07' W 080°06'0 0.0
2017-Sep-04 13:48N 26°07' W 080°06'0 0.0
2017-Sep-04 13:03N 26°07' W 080°06'0 0.0
2017-Sep-04 12:48N 26°07' W 080°06'0 0.0
2017-Sep-04 12:25N 26°07' W 080°06'0 0.0
2017-Sep-04 11:33N 26°07' W 080°06'0 0.0
2017-Sep-04 11:21N 26°07' W 080°06'0 0.0
2017-Sep-04 10:10N 26°07' W 080°06'0 0.0
2017-Sep-04 09:43N 26°07' W 080°06'0 0.0
2017-Sep-04 09:31N 26°07' W 080°06'0 0.0
2017-Sep-04 09:00N 26°07' W 080°06'0 0.0
2017-Sep-04 08:31N 26°07' W 080°06'0 0.0
2017-Sep-04 08:00N 26°07' W 080°06'0 0.0
2017-Sep-04 07:30N 26°07' W 080°06'0 0.0
2017-Sep-04 07:00N 26°07' W 080°06'0 0.0
2017-Sep-04 06:30N 26°07' W 080°06'0 0.0
2017-Sep-04 06:00N 26°07' W 080°06'0 0.0
2017-Sep-04 05:30N 26°07' W 080°06'0 0.0
2017-Sep-04 04:57N 26°07' W 080°06'0 0.0
2017-Sep-04 04:31N 26°07' W 080°06'0 0.0
2017-Sep-04 04:00N 26°07' W 080°06'0 0.0
2017-Sep-04 03:30N 26°07' W 080°06'0 0.0
2017-Sep-04 03:01N 26°07' W 080°06'0 0.0
2017-Sep-04 02:28N 26°07' W 080°06'0 0.0
2017-Sep-04 02:00N 26°07' W 080°06'0 0.0
2017-Sep-04 00:54N 26°07' W 080°06'0 0.0
2017-Sep-04 00:28N 26°07' W 080°06'0 0.0
2017-Sep-03 23:52N 26°07' W 080°06'0 0.0
2017-Sep-03 22:03N 26°07' W 080°06'0 0.0
2017-Sep-03 21:54N 26°07' W 080°06'0 0.0
2017-Sep-03 21:15N 26°07' W 080°06'0 0.0
2017-Sep-03 20:54N 26°07' W 080°06'0 0.0
2017-Sep-03 20:30N 26°07' W 080°06'0 0.0
2017-Sep-03 20:00N 26°07' W 080°06'0 0.0
2017-Sep-03 19:30N 26°07' W 080°06'0 0.0
2017-Sep-03 19:00N 26°07' W 080°06'0 0.0
2017-Sep-03 18:30N 26°07' W 080°06'0 0.0
2017-Sep-03 17:57N 26°07' W 080°06'0 0.0
2017-Sep-03 17:30N 26°07' W 080°06'0 0.0
2017-Sep-03 17:00N 26°07' W 080°06'0 0.0
2017-Sep-03 16:30N 26°07' W 080°06'0 0.0
2017-Sep-03 16:00N 26°07' W 080°06'0 0.0
2017-Sep-03 15:30N 26°07' W 080°06'0 0.0
2017-Sep-03 15:00N 26°07' W 080°06'0 0.0
2017-Sep-03 13:51N 26°07' W 080°06'0 0.0
2017-Sep-03 13:27N 26°07' W 080°06'0 0.0
2017-Sep-03 12:27N 26°07' W 080°06'0 0.0
2017-Sep-03 11:57N 26°07' W 080°06'0 0.0
2017-Sep-03 10:45N 26°07' W 080°06'0 0.0
2017-Sep-03 09:03N 26°07' W 080°06'0 0.0
2017-Sep-03 08:57N 26°07' W 080°06'0 0.0
2017-Sep-03 08:21N 26°07' W 080°06'0 0.0
2017-Sep-03 08:00N 26°07' W 080°06'0 0.0
2017-Sep-03 07:30N 26°07' W 080°06'0 0.0
2017-Sep-03 07:00N 26°07' W 080°06'0 0.0
2017-Sep-03 06:30N 26°07' W 080°06'0 0.0
2017-Sep-03 05:57N 26°07' W 080°06'0 0.0
2017-Sep-03 05:30N 26°07' W 080°06'0 0.0
2017-Sep-03 05:00N 26°07' W 080°06'0 0.0
2017-Sep-03 04:30N 26°07' W 080°06'0 0.0
2017-Sep-03 04:00N 26°07' W 080°06'0 0.0
2017-Sep-03 03:30N 26°07' W 080°06'0 0.0
2017-Sep-03 03:00N 26°07' W 080°06'0 0.0
2017-Sep-03 02:30N 26°07' W 080°06'0 0.0
2017-Sep-03 01:51N 26°07' W 080°06'0 0.0
2017-Sep-03 01:30N 26°07' W 080°06'0 0.0
2017-Sep-03 00:39N 26°07' W 080°06'0 0.0
2017-Sep-03 00:30N 26°07' W 080°06'0 0.0
2017-Sep-02 23:27N 26°07' W 080°06'0 0.0
2017-Sep-02 21:57N 26°07' W 080°06'0 0.0
2017-Sep-02 19:45N 26°07' W 080°06'0 0.0
2017-Sep-02 19:27N 26°07' W 080°06'0 0.0
2017-Sep-02 18:57N 26°07' W 080°06'0 0.0
2017-Sep-02 18:30N 26°07' W 080°06'0 0.0
2017-Sep-02 18:00N 26°07' W 080°06'0 0.0
2017-Sep-02 17:27N 26°07' W 080°06'0 0.0
2017-Sep-02 17:00N 26°07' W 080°06'0 0.0
2017-Sep-02 16:30N 26°07' W 080°06'0 0.0
2017-Sep-02 15:57N 26°07' W 080°06'0 0.0
2017-Sep-02 15:30N 26°07' W 080°06'0 0.0
2017-Sep-02 15:00N 26°07' W 080°06'0 0.0
2017-Sep-02 14:30N 26°07' W 080°06'0 0.0
2017-Sep-02 14:00N 26°07' W 080°06'0 0.0
2017-Sep-02 13:27N 26°07' W 080°06'0 0.0
2017-Sep-02 12:51N 26°07' W 080°06'0 0.0
2017-Sep-02 12:24N 26°07' W 080°06'0 0.0
2017-Sep-02 11:57N 26°07' W 080°06'0 0.0
2017-Sep-02 11:30N 26°07' W 080°06'0 0.0
2017-Sep-02 10:54N 26°07' W 080°06'0 0.0
2017-Sep-02 10:24N 26°07' W 080°06'0 0.0
2017-Sep-02 09:51N 26°07' W 080°06'0 0.0
2017-Sep-02 09:30N 26°07' W 080°06'0 0.0
2017-Sep-02 09:00N 26°07' W 080°06'0 0.0
2017-Sep-02 08:30N 26°07' W 080°06'0 0.0
2017-Sep-02 08:00N 26°07' W 080°06'0 0.0
2017-Sep-02 07:30N 26°07' W 080°06'0 0.0
2017-Sep-02 06:57N 26°07' W 080°06'0 0.0
2017-Sep-02 06:30N 26°07' W 080°06'0 0.0
2017-Sep-02 06:00N 26°07' W 080°06'0 0.0
2017-Sep-02 05:30N 26°07' W 080°06'0 0.0
2017-Sep-02 05:00N 26°07' W 080°06'0 0.0
2017-Sep-02 04:27N 26°07' W 080°06'0 0.0
2017-Sep-02 04:00N 26°07' W 080°06'0 0.0
2017-Sep-02 03:30N 26°07' W 080°06'0 0.0
2017-Sep-02 02:57N 26°07' W 080°06'0 0.0
2017-Sep-02 02:27N 26°07' W 080°06'0 0.0
2017-Sep-02 02:00N 26°07' W 080°06'0 0.0
2017-Sep-02 01:30N 26°07' W 080°06'0 0.0
2017-Sep-02 01:00N 26°07' W 080°06'0 0.0
2017-Sep-02 00:24N 26°07' W 080°06'0 0.0
2017-Sep-02 00:00N 26°07' W 080°06'0 0.0
2017-Sep-01 23:21N 26°07' W 080°06'0 0.0
2017-Sep-01 22:51N 26°07' W 080°06'0 0.0
2017-Sep-01 22:24N 26°07' W 080°06'0 0.0
2017-Sep-01 21:39N 26°07' W 080°06'0 0.0
2017-Sep-01 21:12N 26°07' W 080°06'0 0.0
2017-Sep-01 20:51N 26°07' W 080°06'0 0.0
2017-Sep-01 20:21N 26°07' W 080°06'0 0.0
2017-Sep-01 19:51N 26°07' W 080°06'0 0.0
2017-Sep-01 19:21N 26°07' W 080°06'0 0.0
2017-Sep-01 19:00N 26°07' W 080°06'0 0.0
2017-Sep-01 18:27N 26°07' W 080°06'0 0.0
2017-Sep-01 18:00N 26°07' W 080°06'0 0.0
2017-Sep-01 17:30N 26°07' W 080°06'0 0.0
2017-Sep-01 16:57N 26°07' W 080°06'0 0.0
2017-Sep-01 16:30N 26°07' W 080°06'0 0.0
2017-Sep-01 16:00N 26°07' W 080°06'0 0.0
2017-Sep-01 15:30N 26°07' W 080°06'0 0.0
2017-Sep-01 15:00N 26°07' W 080°06'0 0.0
2017-Sep-01 14:21N 26°07' W 080°06'0 0.0
2017-Sep-01 14:00N 26°07' W 080°06'0 0.0
2017-Sep-01 13:30N 26°07' W 080°06'0 0.0
2017-Sep-01 13:00N 26°07' W 080°06'0 0.0
2017-Sep-01 12:30N 26°07' W 080°06'0 0.0
2017-Sep-01 12:00N 26°07' W 080°06'0 0.0
2017-Sep-01 11:30N 26°07' W 080°06'0 0.0
2017-Sep-01 10:57N 26°07' W 080°06'0 0.0
2017-Sep-01 10:30N 26°07' W 080°06'0 0.0
2017-Sep-01 10:00N 26°07' W 080°06'0 0.0
2017-Sep-01 09:30N 26°07' W 080°06'0 0.0
2017-Sep-01 08:57N 26°07' W 080°06'0 0.0
2017-Sep-01 08:21N 26°07' W 080°06'0 0.0
2017-Sep-01 07:57N 26°07' W 080°06'0 0.0
2017-Sep-01 07:30N 26°07' W 080°06'0 0.0
2017-Sep-01 06:54N 26°07' W 080°06'0 0.0
2017-Sep-01 06:30N 26°07' W 080°06'0 0.0
2017-Sep-01 06:00N 26°07' W 080°06'0 0.0
2017-Sep-01 05:30N 26°07' W 080°06'0 0.0
2017-Sep-01 05:00N 26°07' W 080°06'0 0.0
2017-Sep-01 04:30N 26°07' W 080°06'0 0.0
2017-Sep-01 04:00N 26°07' W 080°06'0 0.0
2017-Sep-01 03:27N 26°07' W 080°06'0 0.0
2017-Sep-01 03:00N 26°07' W 080°06'0 0.0
2017-Sep-01 02:30N 26°07' W 080°06'0 0.0
2017-Sep-01 02:00N 26°07' W 080°06'0 0.0
2017-Sep-01 01:30N 26°07' W 080°06'0 0.0
2017-Sep-01 00:54N 26°07' W 080°06'0 0.0
2017-Sep-01 00:30N 26°07' W 080°06'0 0.0
2017-Sep-01 00:00N 26°07' W 080°06'0 0.0
2017-Aug-31 23:30N 26°07' W 080°06'0 0.0
2017-Aug-31 23:00N 26°07' W 080°06'0 0.0
2017-Aug-31 22:27N 26°07' W 080°06'0 0.0
2017-Aug-31 21:45N 26°07' W 080°06'0 0.0
2017-Aug-31 20:45N 26°07' W 080°06'0 0.0
2017-Aug-31 20:15N 26°07' W 080°06'0 0.0
2017-Aug-31 19:45N 26°07' W 080°06'0 0.0
2017-Aug-31 19:30N 26°07' W 080°06'0 0.0
2017-Aug-31 18:51N 26°07' W 080°06'0 0.0
2017-Aug-31 18:21N 26°07' W 080°06'0 0.0
2017-Aug-31 17:51N 26°07' W 080°06'0 0.0
2017-Aug-31 17:21N 26°07' W 080°06'0 0.0
2017-Aug-31 16:39N 26°07' W 080°06'0 0.0
2017-Aug-31 16:30N 26°07' W 080°06'0 0.0
2017-Aug-31 15:51N 26°07' W 080°06'0 0.0
2017-Aug-31 15:21N 26°07' W 080°06'0 0.0
2017-Aug-31 14:54N 26°07' W 080°06'0 0.0
2017-Aug-31 14:21N 26°07' W 080°06'0 0.0
2017-Aug-31 14:00N 26°07' W 080°06'0 0.0
2017-Aug-31 13:30N 26°07' W 080°06'0 0.0
2017-Aug-31 12:57N 26°07' W 080°06'0 0.0
2017-Aug-31 12:27N 26°07' W 080°06'0 0.0
2017-Aug-31 11:51N 26°07' W 080°06'0 0.0
2017-Aug-31 11:27N 26°07' W 080°06'0 0.0
2017-Aug-31 11:00N 26°07' W 080°06'0 0.0
2017-Aug-31 10:24N 26°07' W 080°06'0 0.0
2017-Aug-31 09:54N 26°07' W 080°06'0 0.0
2017-Aug-31 09:09N 26°07' W 080°06'0 0.0
2017-Aug-31 08:57N 26°07' W 080°06'0 0.0
2017-Aug-31 08:27N 26°07' W 080°06'0 0.0
2017-Aug-31 07:54N 26°07' W 080°06'0 0.0
2017-Aug-31 07:30N 26°07' W 080°06'0 0.0
2017-Aug-31 07:00N 26°07' W 080°06'0 0.0
2017-Aug-31 06:30N 26°07' W 080°06'0 0.0
2017-Aug-31 06:00N 26°07' W 080°06'0 0.0
2017-Aug-31 05:30N 26°07' W 080°06'0 0.0
2017-Aug-31 05:00N 26°07' W 080°06'0 0.0
2017-Aug-31 04:30N 26°07' W 080°06'0 0.0
2017-Aug-31 03:57N 26°07' W 080°06'0 0.0
2017-Aug-31 03:30N 26°07' W 080°06'0 0.0
2017-Aug-31 03:00N 26°07' W 080°06'0 0.0
2017-Aug-31 02:30N 26°07' W 080°06'0 0.0
2017-Aug-31 02:00N 26°07' W 080°06'0 0.0
2017-Aug-31 01:30N 26°07' W 080°06'0 0.0
2017-Aug-31 00:57N 26°07' W 080°06'0 0.0
2017-Aug-31 00:30N 26°07' W 080°06'0 0.0
2017-Aug-31 00:00N 26°07' W 080°06'0 0.0
2017-Aug-30 23:24N 26°07' W 080°06'0 0.0
2017-Aug-30 23:00N 26°07' W 080°06'0 0.0
2017-Aug-30 22:27N 26°07' W 080°06'0 0.0
2017-Aug-30 21:57N 26°07' W 080°06'0 0.0
2017-Aug-30 21:24N 26°07' W 080°06'0 0.0
2017-Aug-30 20:12N 26°07' W 080°06'0 0.0
2017-Aug-30 19:57N 26°07' W 080°06'0 0.0
2017-Aug-30 19:27N 26°07' W 080°06'0 0.0
2017-Aug-30 18:57N 26°07' W 080°06'0 0.0
2017-Aug-30 18:27N 26°07' W 080°06'0 0.0
2017-Aug-30 17:15N 26°07' W 080°06'0 0.0
2017-Aug-30 16:45N 26°07' W 080°06'0 0.0
2017-Aug-30 16:27N 26°07' W 080°06'0 0.0
2017-Aug-30 15:57N 26°07' W 080°06'0 0.0
2017-Aug-30 15:21N 26°07' W 080°06'0 0.0
2017-Aug-30 14:45N 26°07' W 080°06'0 0.0
2017-Aug-30 14:30N 26°07' W 080°06'0 0.0
2017-Aug-30 14:00N 26°07' W 080°06'0 0.0
2017-Aug-30 13:30N 26°07' W 080°06'0 0.0
2017-Aug-30 13:00N 26°07' W 080°06'0 0.0
2017-Aug-30 12:30N 26°07' W 080°06'0 0.0
2017-Aug-30 12:00N 26°07' W 080°06'0 0.0
2017-Aug-30 11:30N 26°07' W 080°06'0 0.0
2017-Aug-30 11:00N 26°07' W 080°06'0 0.0
2017-Aug-30 10:27N 26°07' W 080°06'0 0.0
2017-Aug-30 09:51N 26°07' W 080°06'0 0.0
2017-Aug-30 09:27N 26°07' W 080°06'0 0.0
2017-Aug-30 08:51N 26°07' W 080°06'0 0.0
2017-Aug-30 08:27N 26°07' W 080°06'0 0.0
2017-Aug-30 07:57N 26°07' W 080°06'0 0.0
2017-Aug-30 07:27N 26°07' W 080°06'0 0.0
2017-Aug-30 06:57N 26°07' W 080°06'0 0.0
2017-Aug-30 06:27N 26°07' W 080°06'0 0.0
2017-Aug-30 05:57N 26°07' W 080°06'0 0.0
2017-Aug-30 05:30N 26°07' W 080°06'0 0.0
2017-Aug-30 05:00N 26°07' W 080°06'0 0.0
2017-Aug-30 04:30N 26°07' W 080°06'0 0.0
2017-Aug-30 04:00N 26°07' W 080°06'0 0.0
2017-Aug-30 03:27N 26°07' W 080°06'0 0.0
2017-Aug-30 03:00N 26°07' W 080°06'0 0.0
2017-Aug-30 02:30N 26°07' W 080°06'0 0.0
2017-Aug-30 01:57N 26°07' W 080°06'0 0.0
2017-Aug-30 01:30N 26°07' W 080°06'0 0.0
2017-Aug-30 01:00N 26°07' W 080°06'0 0.0
2017-Aug-30 00:30N 26°07' W 080°06'0 0.0
2017-Aug-29 23:57N 26°07' W 080°06'0 0.0
2017-Aug-29 23:30N 26°07' W 080°06'0 0.0
2017-Aug-29 23:00N 26°07' W 080°06'0 0.0
2017-Aug-29 22:30N 26°07' W 080°06'0 0.0
2017-Aug-29 21:39N 26°07' W 080°06'0 0.0
2017-Aug-29 21:21N 26°07' W 080°06'0 0.0
2017-Aug-29 20:57N 26°07' W 080°06'0 0.0
2017-Aug-29 20:21N 26°07' W 080°06'0 0.0
2017-Aug-29 19:48N 26°07' W 080°06'0 0.0
2017-Aug-29 19:09N 26°07' W 080°06'0 0.0
2017-Aug-29 18:51N 26°07' W 080°06'0 0.0
2017-Aug-29 18:21N 26°07' W 080°06'0 0.0
2017-Aug-29 17:51N 26°07' W 080°06'0 0.0
2017-Aug-29 17:27N 26°07' W 080°06'0 0.0
2017-Aug-29 16:57N 26°07' W 080°06'0 0.0
2017-Aug-29 16:21N 26°07' W 080°06'0 0.0
2017-Aug-29 15:51N 26°07' W 080°06'0 0.0
2017-Aug-29 15:30N 26°07' W 080°06'0 0.0
2017-Aug-29 14:57N 26°07' W 080°06'0 0.0
2017-Aug-29 14:27N 26°07' W 080°06'0 0.0
2017-Aug-29 14:00N 26°07' W 080°06'0 0.0
2017-Aug-29 13:27N 26°07' W 080°06'0 0.0
2017-Aug-29 13:00N 26°07' W 080°06'0 0.0
2017-Aug-29 12:30N 26°07' W 080°06'0 0.0
2017-Aug-29 12:00N 26°07' W 080°06'0 0.0
2017-Aug-29 11:15N 26°07' W 080°06'0 0.0
2017-Aug-29 11:00N 26°07' W 080°06'0 0.0
2017-Aug-29 10:30N 26°07' W 080°06'0 0.0
2017-Aug-29 10:00N 26°07' W 080°06'0 0.0
2017-Aug-29 09:30N 26°07' W 080°06'0 0.0
2017-Aug-29 09:00N 26°07' W 080°06'0 0.0
2017-Aug-29 08:18N 26°07' W 080°06'0 0.0
2017-Aug-29 08:00N 26°07' W 080°06'0 0.0
2017-Aug-29 07:30N 26°07' W 080°06'0 0.0
2017-Aug-29 06:57N 26°07' W 080°06'0 0.0
2017-Aug-29 06:30N 26°07' W 080°06'0 0.0
2017-Aug-29 05:57N 26°07' W 080°06'0 0.0
2017-Aug-29 05:24N 26°07' W 080°06'0 0.0
2017-Aug-29 04:51N 26°07' W 080°06'0 0.0
2017-Aug-29 04:30N 26°07' W 080°06'0 0.0
2017-Aug-29 03:51N 26°07' W 080°06'0 0.0
2017-Aug-29 03:27N 26°07' W 080°06'0 0.0
2017-Aug-29 02:51N 26°07' W 080°06'0 0.0
2017-Aug-29 02:27N 26°07' W 080°06'0 0.0
2017-Aug-29 02:00N 26°07' W 080°06'0 0.0
2017-Aug-29 01:27N 26°07' W 080°06'0 0.0
2017-Aug-29 01:00N 26°07' W 080°06'0 0.0
2017-Aug-29 00:30N 26°07' W 080°06'0 0.0
2017-Aug-28 23:57N 26°07' W 080°06'0 0.0
2017-Aug-28 23:30N 26°07' W 080°06'0 0.0
2017-Aug-28 22:57N 26°07' W 080°06'0 0.0
2017-Aug-28 22:30N 26°07' W 080°06'0 0.0
2017-Aug-28 21:45N 26°07' W 080°06'0 0.0
2017-Aug-28 21:27N 26°07' W 080°06'0 0.0
2017-Aug-28 17:45N 26°07' W 080°06'0 0.0
2017-Aug-28 17:21N 26°07' W 080°06'0 0.0
2017-Aug-28 16:51N 26°07' W 080°06'0 0.0
2017-Aug-28 16:15N 26°07' W 080°06'0 0.0
2017-Aug-28 15:45N 26°07' W 080°06'0 0.0
2017-Aug-28 15:21N 26°07' W 080°06'0 0.0
2017-Aug-28 14:45N 26°07' W 080°06'0 0.0
2017-Aug-28 14:21N 26°07' W 080°06'0 0.0
2017-Aug-28 13:57N 26°07' W 080°06'0 0.0
2017-Aug-28 13:30N 26°07' W 080°06'0 0.0
2017-Aug-28 12:51N 26°07' W 080°06'0 0.0
2017-Aug-28 12:21N 26°07' W 080°06'0 0.0
2017-Aug-28 11:51N 26°07' W 080°06'0 0.0
2017-Aug-28 11:24N 26°07' W 080°06'0 0.0
2017-Aug-28 10:51N 26°07' W 080°06'0 0.0
2017-Aug-28 10:21N 26°07' W 080°06'0 0.0
2017-Aug-28 10:00N 26°07' W 080°06'0 0.0
2017-Aug-28 09:27N 26°07' W 080°06'0 0.0
2017-Aug-28 08:57N 26°07' W 080°06'0 0.0
2017-Aug-28 08:30N 26°07' W 080°06'0 0.0
2017-Aug-28 08:00N 26°07' W 080°06'1 2.1
2017-Aug-28 07:30N 26°06' W 080°07'4 8.2
2017-Aug-28 07:00N 26°06' W 080°03'714.3
2017-Aug-28 06:30N 26°02' W 079°56'713.7
2017-Aug-28 06:00N 25°60' W 079°49'  

Dump ship's entire track history